sim
Sign-in with your pilot id or email,
or register
Callsign
Passwort

Schedule Details

Flight Number: OEO2579
Departure: Madrid Barajas Airport (LEMD) at 10:20
Arrival: Munich Airport (EDDM) at 12:45

Weather Information
Getting current METAR information for LEMD 250200Z 25009KT 220V280 CAVOK 15/06 Q1018 NOSIG
Getting current METAR information for EDDM 250150Z 27005KT 9999 -RA FEW011 SCT040 13/12 Q1002 TEMPO RA BKN008

Schedule Frequency

Route Map